DTTD

Details ICAO DTTD
Name REMADA
Region Tunisia
Timezone Africa/Tunis (UTC+1.0)
Plans Departing 6
Arriving 7
Stats Elevation 1,004 ft / 306 m (AMSL)
Location 32.306146° 10.382098°
Runways 1
Magnetic Variation 2.166° E
Sunrise 2017-12-13 06:12:24 UTC / 2017-12-13 07:12:24 Local
Sunset 2017-12-13 16:15:45 UTC / 2017-12-13 17:15:45 Local
Advertisement - Login to hide

Runways

ID Width Length Bearing (true) Bearing (mag) Surface Threshold Offset Overrun Length
02 148 ft / 45 m 7,827 ft / 2,386 m 22.67° 20.50° Asphalt 0 ft / 0 m 0 ft / 0 m
20 148 ft / 45 m 7,827 ft / 2,386 m 202.67° 200.50° Asphalt 0 ft / 0 m 0 ft / 0 m

Map

Weather


0- 5 10 15 20 25 30 35+ Temperature / ° C

Clouds and Precipitation
Forecast for 2017-12-13 12:00 UTC. Updated 2 hours ago

Ground ~20,000 ft ~40,000 ft Winds

METAR

DTTD 130900Z 27006KT 240V320 CAVOK 17/M01 Q1025

TAF

Not found
Warning: Do not use this data for real-world aviation or navigation. No guarantee of current accuracy is given.